createdAt,value
2023-01-17T00:02:34.171Z,97702.09
2023-01-17T00:07:54.486Z,97710.22
2023-01-17T00:13:01.913Z,97704.94
2023-01-17T00:18:08.587Z,97701.50
2023-01-17T00:24:01.111Z,97697.84
2023-01-17T00:29:03.117Z,97703.94
2023-01-17T00:34:05.373Z,97710.63
2023-01-17T00:39:07.028Z,97710.41
2023-01-17T00:44:27.469Z,97705.94
2023-01-17T00:49:49.916Z,97702.25
2023-01-17T00:55:12.527Z,97701.25
2023-01-17T01:00:33.547Z,97697.38
2023-01-17T01:05:56.104Z,97695.53
2023-01-17T01:11:16.634Z,97699.22
2023-01-17T01:16:38.738Z,97710.19
2023-01-17T01:22:01.562Z,97710.63
2023-01-17T01:27:24.636Z,97713.47
2023-01-17T01:32:44.832Z,97714.91
2023-01-17T01:37:47.858Z,97720.63
2023-01-17T01:42:54.211Z,97734.47
2023-01-17T01:48:21.131Z,97725.53
2023-01-17T01:53:23.020Z,97723.31
2023-01-17T01:58:28.108Z,97728.81
2023-01-17T02:03:31.884Z,97734.31
2023-01-17T02:08:51.400Z,97737.78
2023-01-17T02:13:55.279Z,97730.69
2023-01-17T02:19:00.224Z,97736.97
2023-01-17T02:24:20.855Z,97736.16
2023-01-17T02:29:34.829Z,97742.47
2023-01-17T02:35:01.014Z,97748.56
2023-01-17T02:40:06.490Z,97756.28
2023-01-17T02:45:08.812Z,97769.25
2023-01-17T02:50:18.452Z,97773.72
2023-01-17T02:55:30.444Z,97770.09
2023-01-17T03:01:01.160Z,97783.91
2023-01-17T03:06:17.136Z,97787.13
2023-01-17T03:11:23.233Z,97796.47
2023-01-17T03:16:29.525Z,97791.19
2023-01-17T03:21:33.786Z,97791.22
2023-01-17T03:26:35.624Z,97840.16
2023-01-17T03:31:39.596Z,97850.72
2023-01-17T03:36:44.095Z,97852.53
2023-01-17T03:41:45.837Z,97869.41
2023-01-17T03:46:47.671Z,97880.16
2023-01-17T03:51:50.496Z,97905.75
2023-01-17T03:56:52.505Z,97913.66
2023-01-17T04:01:58.958Z,97937.41
2023-01-17T04:07:04.751Z,97922.38
2023-01-17T04:12:09.534Z,97928.06
2023-01-17T04:17:14.590Z,97946.31
2023-01-17T04:22:16.574Z,97967.41
2023-01-17T04:27:24.408Z,97974.16
2023-01-17T04:32:29.902Z,97980.44
2023-01-17T04:37:31.639Z,97994.66
2023-01-17T04:42:37.344Z,97992.66
2023-01-17T04:47:43.976Z,98011.31
2023-01-17T04:52:50.177Z,98020.84
2023-01-17T04:57:54.637Z,98024.53
2023-01-17T05:03:03.486Z,98037.28
2023-01-17T05:08:11.192Z,98035.28
2023-01-17T05:13:13.175Z,98045.03
2023-01-17T05:18:18.389Z,98065.16
2023-01-17T05:23:20.212Z,98074.06
2023-01-17T05:28:26.729Z,98080.75
2023-01-17T05:33:31.289Z,98082.38
2023-01-17T05:38:35.140Z,98098.19
2023-01-17T05:43:39.890Z,98098.09
2023-01-17T05:48:46.776Z,98111.81
2023-01-17T05:53:51.197Z,98128.94
2023-01-17T05:58:53.017Z,98171.91
2023-01-17T06:03:59.942Z,98147.41
2023-01-17T06:09:06.601Z,98165.00
2023-01-17T06:14:10.500Z,98155.72
2023-01-17T06:19:13.382Z,98169.41
2023-01-17T06:24:17.477Z,98179.59
2023-01-17T06:29:22.598Z,98191.06
2023-01-17T06:34:24.631Z,98207.94
2023-01-17T06:39:26.437Z,98209.06
2023-01-17T06:44:40.443Z,98223.06
2023-01-17T06:49:45.961Z,98268.38
2023-01-17T06:54:51.595Z,98269.69
2023-01-17T06:59:55.729Z,98270.88
2023-01-17T07:04:57.446Z,98271.69
2023-01-17T07:10:00.397Z,98266.16
2023-01-17T07:15:05.764Z,98257.81
2023-01-17T07:20:10.348Z,98271.63
2023-01-17T07:25:14.606Z,98283.50
2023-01-17T07:30:21.617Z,98285.13
2023-01-17T07:35:26.614Z,98299.56
2023-01-17T07:40:28.519Z,98310.19
2023-01-17T07:45:33.178Z,98326.97
2023-01-17T07:50:42.189Z,98336.88
2023-01-17T07:55:46.250Z,98361.09
2023-01-17T08:00:48.203Z,98364.28
2023-01-17T08:05:57.839Z,98384.19
2023-01-17T08:10:59.890Z,98357.03
2023-01-17T08:16:04.488Z,98322.78
2023-01-17T08:21:14.315Z,98334.97
2023-01-17T08:26:22.263Z,98345.13
2023-01-17T08:31:30.332Z,98379.16
2023-01-17T08:36:32.278Z,98388.44
2023-01-17T08:41:34.812Z,98384.34
2023-01-17T08:46:38.295Z,98393.09
2023-01-17T08:51:40.363Z,98403.59
2023-01-17T08:56:44.736Z,98392.53
2023-01-17T09:01:48.926Z,98403.16
2023-01-17T09:06:53.061Z,98415.78
2023-01-17T09:11:56.284Z,98433.03
2023-01-17T09:16:58.264Z,98428.78
2023-01-17T09:22:00.120Z,98423.59
2023-01-17T09:27:02.079Z,98426.97
2023-01-17T09:32:04.347Z,98446.59
2023-01-17T09:37:08.285Z,98448.63
2023-01-17T09:42:25.621Z,98460.94
2023-01-17T09:47:44.369Z,98478.13
2023-01-17T09:52:46.355Z,98490.78
2023-01-17T09:58:01.426Z,98508.63
2023-01-17T10:03:22.336Z,98500.16
2023-01-17T10:09:08.123Z,98503.97
2023-01-17T10:14:31.147Z,98534.28
2023-01-17T10:20:14.416Z,98547.78
2023-01-17T10:25:39.525Z,98551.47
2023-01-17T10:30:49.926Z,98516.00
2023-01-17T10:36:08.938Z,98503.34
2023-01-17T10:41:20.991Z,98506.69
2023-01-17T10:46:28.969Z,98500.91
2023-01-17T10:51:47.553Z,98504.75
2023-01-17T10:56:49.308Z,98509.28
2023-01-17T11:01:53.323Z,98508.44
2023-01-17T11:07:20.596Z,98509.91
2023-01-17T11:12:41.498Z,98515.50
2023-01-17T11:17:53.088Z,98505.16
2023-01-17T11:23:06.760Z,98515.69
2023-01-17T11:28:38.801Z,98502.81
2023-01-17T11:33:45.280Z,98522.84
2023-01-17T11:38:56.301Z,98512.44
2023-01-17T11:44:02.299Z,98485.22
2023-01-17T11:49:05.715Z,98490.72
2023-01-17T11:54:39.206Z,98497.19
2023-01-17T11:59:45.158Z,98504.19
2023-01-17T12:05:10.555Z,98510.09
2023-01-17T12:10:38.048Z,98507.59
2023-01-17T12:16:00.261Z,98521.09
2023-01-17T12:21:20.563Z,98543.09
2023-01-17T12:26:34.335Z,98541.09
2023-01-17T12:32:03.551Z,98525.78
2023-01-17T12:37:21.076Z,98534.31
2023-01-17T12:42:31.879Z,98516.81
2023-01-17T12:47:36.281Z,98523.53
2023-01-17T12:53:01.897Z,98530.00
2023-01-17T12:58:14.966Z,98521.41
2023-01-17T13:03:24.742Z,98515.47
2023-01-17T13:08:38.787Z,98525.19
2023-01-17T13:13:44.036Z,98524.16
2023-01-17T13:18:52.585Z,98540.41
2023-01-17T13:23:59.154Z,98561.03
2023-01-17T13:29:21.802Z,98575.09
2023-01-17T13:34:35.048Z,98573.91
2023-01-17T13:40:29.478Z,98568.31
2023-01-17T13:45:33.725Z,98575.41
2023-01-17T13:50:41.947Z,98565.47
2023-01-17T13:55:46.084Z,98570.81
2023-01-17T14:00:49.612Z,98575.56
2023-01-17T14:05:57.494Z,98575.44
2023-01-17T14:11:09.809Z,98563.09
2023-01-17T14:16:21.773Z,98579.44
2023-01-17T14:21:35.688Z,98573.84
2023-01-17T14:26:55.621Z,98565.84
2023-01-17T14:32:02.619Z,98574.69
2023-01-17T14:37:32.624Z,98584.69
2023-01-17T14:42:35.955Z,98582.69
2023-01-17T14:47:39.454Z,98593.25
2023-01-17T14:52:47.092Z,98593.94
2023-01-17T14:57:57.763Z,98596.69
2023-01-17T15:03:05.254Z,98610.00
2023-01-17T15:08:13.840Z,98598.47
2023-01-17T15:13:18.123Z,98603.69
2023-01-17T15:18:29.980Z,98599.91
2023-01-17T15:23:51.358Z,98603.91
2023-01-17T15:28:56.432Z,98607.56
2023-01-17T15:33:58.257Z,98614.31
2023-01-17T15:39:14.985Z,98615.94
2023-01-17T15:44:39.081Z,98609.31
2023-01-17T15:49:52.508Z,98615.63
2023-01-17T15:55:01.468Z,98618.56
2023-01-17T16:00:21.496Z,98618.22
2023-01-17T16:05:32.974Z,98623.75
2023-01-17T16:10:44.401Z,98629.22
2023-01-17T16:15:53.086Z,98641.78
2023-01-17T16:21:01.291Z,98632.75
2023-01-17T16:26:10.868Z,98649.84
2023-01-17T16:31:12.728Z,98659.59
2023-01-17T16:36:20.881Z,98653.41
2023-01-17T16:41:29.571Z,98663.38
2023-01-17T16:46:38.609Z,98660.00
2023-01-17T16:51:48.758Z,98662.34
2023-01-17T16:56:50.682Z,98673.78
2023-01-17T17:01:53.150Z,98669.94
2023-01-17T17:06:54.911Z,98680.81
2023-01-17T17:12:01.639Z,98694.19
2023-01-17T17:17:06.935Z,98692.94
2023-01-17T17:22:09.244Z,98690.81
2023-01-17T17:27:15.489Z,98701.06
2023-01-17T17:32:19.488Z,98702.16
2023-01-17T17:37:23.887Z,98706.16
2023-01-17T17:42:25.925Z,98708.66
2023-01-17T17:47:29.523Z,98710.16
2023-01-17T17:52:33.637Z,98711.66
2023-01-17T17:57:35.484Z,98722.88
2023-01-17T18:02:40.384Z,98715.50
2023-01-17T18:07:44.394Z,98725.06
2023-01-17T18:12:50.963Z,98721.28
2023-01-17T18:17:55.660Z,98725.22
2023-01-17T18:23:02.220Z,98727.84
2023-01-17T18:28:06.397Z,98729.34
2023-01-17T18:33:08.104Z,98752.06
2023-01-17T18:38:11.546Z,98755.69
2023-01-17T18:43:18.062Z,98751.41
2023-01-17T18:48:19.717Z,98768.00
2023-01-17T18:53:25.936Z,98766.38
2023-01-17T18:58:31.851Z,98773.59
2023-01-17T19:03:36.778Z,98773.75
2023-01-17T19:08:38.622Z,98780.50
2023-01-17T19:13:42.820Z,98781.50
2023-01-17T19:18:52.075Z,98779.53
2023-01-17T19:23:56.234Z,98785.44
2023-01-17T19:29:00.429Z,98784.47
2023-01-17T19:40:00.799Z,98793.66
2023-01-17T19:45:03.181Z,98808.78
2023-01-17T19:50:11.629Z,98806.81
2023-01-17T19:55:13.582Z,98819.47
2023-01-17T20:00:20.536Z,98826.38
2023-01-17T20:05:22.372Z,98817.31
2023-01-17T20:10:27.005Z,98820.63
2023-01-17T20:15:29.780Z,98827.19
2023-01-17T20:20:34.366Z,98829.47
2023-01-17T20:25:45.596Z,98842.28
2023-01-17T20:30:52.769Z,98843.75
2023-01-17T20:36:09.155Z,98852.00
2023-01-17T20:41:21.291Z,98856.91
2023-01-17T20:46:25.494Z,98840.16
2023-01-17T20:51:28.653Z,98850.34
2023-01-17T20:56:34.585Z,98852.78
2023-01-17T21:01:37.177Z,98852.25
2023-01-17T21:06:42.963Z,98849.78
2023-01-17T21:11:46.225Z,98851.59
2023-01-17T21:16:50.468Z,98851.75
2023-01-17T21:21:52.289Z,98859.53
2023-01-17T21:26:56.928Z,98856.88
2023-01-17T21:31:58.751Z,98860.44
2023-01-17T21:37:00.537Z,98872.59
2023-01-17T21:42:08.525Z,98869.16
2023-01-17T21:47:12.385Z,98872.59
2023-01-17T21:52:21.638Z,98871.44
2023-01-17T21:57:41.765Z,98878.66
2023-01-17T22:02:49.553Z,98871.59
2023-01-17T22:08:12.045Z,98870.28
2023-01-17T22:13:17.962Z,98880.94
2023-01-17T22:18:25.340Z,98888.31
2023-01-17T22:23:28.415Z,98890.50
2023-01-17T22:28:34.708Z,98881.38
2023-01-17T22:33:39.858Z,98889.44
2023-01-17T22:38:42.416Z,98900.91
2023-01-17T22:43:46.992Z,98909.94
2023-01-17T22:48:52.327Z,98912.22
2023-01-17T22:54:02.714Z,98922.34
2023-01-17T22:59:11.645Z,98936.09
2023-01-17T23:04:14.355Z,98933.63
2023-01-17T23:09:18.183Z,98934.03
2023-01-17T23:14:51.112Z,98943.66
2023-01-17T23:19:54.542Z,98938.50
2023-01-17T23:24:58.884Z,98945.19
2023-01-17T23:30:01.240Z,98960.66
2023-01-17T23:35:05.649Z,98963.28
2023-01-17T23:40:14.259Z,98969.88
2023-01-17T23:45:16.025Z,98966.44
2023-01-17T23:50:17.743Z,98964.09
2023-01-17T23:55:19.435Z,98964.47
